createdAt,value
2022-11-15T00:01:30.356Z,7.74
2022-11-15T00:04:16.283Z,7.85
2022-11-15T00:07:02.136Z,7.78
2022-11-15T00:09:47.739Z,7.92
2022-11-15T00:12:33.541Z,7.87
2022-11-15T00:15:19.265Z,7.75
2022-11-15T00:18:05.582Z,7.57
2022-11-15T00:20:51.689Z,7.60
2022-11-15T00:23:37.392Z,7.70
2022-11-15T00:26:23.334Z,7.83
2022-11-15T00:29:09.315Z,7.75
2022-11-15T00:31:55.009Z,7.70
2022-11-15T00:34:40.685Z,7.78
2022-11-15T00:37:26.407Z,7.69
2022-11-15T00:40:13.956Z,7.74
2022-11-15T00:43:00.277Z,7.70
2022-11-15T00:45:46.337Z,7.70
2022-11-15T00:48:32.582Z,7.73
2022-11-15T00:51:18.426Z,7.84
2022-11-15T00:54:04.439Z,7.81
2022-11-15T00:56:50.310Z,7.84
2022-11-15T00:59:36.099Z,7.78
2022-11-15T01:02:21.812Z,7.95
2022-11-15T01:05:08.217Z,7.83
2022-11-15T01:07:54.852Z,7.69
2022-11-15T01:10:40.727Z,7.69
2022-11-15T01:13:26.481Z,7.74
2022-11-15T01:16:14.627Z,7.75
2022-11-15T01:19:00.895Z,7.60
2022-11-15T01:21:46.882Z,7.62
2022-11-15T01:24:32.710Z,7.62
2022-11-15T01:27:18.484Z,7.62
2022-11-15T01:30:05.009Z,7.59
2022-11-15T01:32:51.024Z,7.64
2022-11-15T01:35:40.072Z,7.53
2022-11-15T01:38:26.051Z,7.66
2022-11-15T01:41:19.367Z,7.64
2022-11-15T01:44:32.539Z,7.73
2022-11-15T01:47:32.664Z,7.78
2022-11-15T01:50:25.058Z,7.83
2022-11-15T01:53:11.834Z,7.80
2022-11-15T01:55:57.716Z,7.80
2022-11-15T01:58:43.618Z,7.81
2022-11-15T02:01:29.599Z,7.71
2022-11-15T02:04:17.802Z,7.74
2022-11-15T02:07:04.548Z,7.80
2022-11-15T02:09:50.340Z,7.78
2022-11-15T02:12:36.238Z,7.88
2022-11-15T02:15:22.090Z,7.90
2022-11-15T02:18:17.852Z,7.81
2022-11-15T02:21:15.252Z,7.87
2022-11-15T02:24:35.084Z,7.70
2022-11-15T02:27:43.733Z,7.77
2022-11-15T02:30:43.002Z,7.90
2022-11-15T02:34:00.061Z,7.83
2022-11-15T02:37:07.596Z,7.83
2022-11-15T02:39:56.526Z,7.84
2022-11-15T02:43:08.317Z,7.78
2022-11-15T02:46:03.239Z,7.99
2022-11-15T02:48:49.301Z,7.92
2022-11-15T02:51:35.087Z,7.74
2022-11-15T02:54:25.596Z,7.81
2022-11-15T02:57:17.002Z,7.90
2022-11-15T03:00:17.560Z,7.87
2022-11-15T03:03:31.538Z,7.83
2022-11-15T03:06:23.553Z,7.84
2022-11-15T03:09:36.355Z,7.81
2022-11-15T03:12:25.193Z,7.81
2022-11-15T03:15:12.491Z,7.84
2022-11-15T03:18:03.332Z,7.78
2022-11-15T03:20:49.839Z,7.64
2022-11-15T03:23:36.201Z,7.53
2022-11-15T03:26:22.490Z,7.46
2022-11-15T03:29:16.320Z,7.43
2022-11-15T03:32:27.575Z,7.49
2022-11-15T03:35:24.512Z,7.64
2022-11-15T03:38:27.440Z,7.57
2022-11-15T03:41:23.888Z,7.57
2022-11-15T03:44:45.061Z,7.57
2022-11-15T03:47:35.975Z,7.67
2022-11-15T03:50:22.442Z,7.59
2022-11-15T03:53:08.236Z,7.66
2022-11-15T03:55:53.929Z,7.70
2022-11-15T03:58:39.909Z,7.62
2022-11-15T04:01:25.734Z,7.57
2022-11-15T04:04:11.390Z,7.59
2022-11-15T04:06:57.409Z,7.57
2022-11-15T04:10:01.542Z,7.49
2022-11-15T04:12:48.894Z,7.42
2022-11-15T04:15:34.841Z,7.37
2022-11-15T04:18:20.788Z,7.29
2022-11-15T04:21:25.233Z,7.22
2022-11-15T04:24:14.128Z,7.33
2022-11-15T04:27:00.215Z,7.37
2022-11-15T04:29:45.797Z,7.42
2022-11-15T04:32:31.539Z,7.46
2022-11-15T04:35:17.332Z,7.47
2022-11-15T04:38:03.906Z,7.63
2022-11-15T04:40:49.982Z,7.67
2022-11-15T04:43:35.971Z,7.67
2022-11-15T04:46:22.758Z,7.71
2022-11-15T04:49:08.386Z,7.75
2022-11-15T04:51:54.552Z,7.84
2022-11-15T04:54:40.157Z,7.88
2022-11-15T04:57:26.045Z,7.80
2022-11-15T05:00:15.994Z,7.80
2022-11-15T05:03:20.599Z,7.73
2022-11-15T05:06:06.570Z,7.73
2022-11-15T05:08:52.693Z,7.71
2022-11-15T05:11:38.335Z,7.81
2022-11-15T05:14:24.264Z,7.74
2022-11-15T05:17:10.351Z,7.59
2022-11-15T05:19:56.002Z,7.60
2022-11-15T05:22:41.832Z,7.73
2022-11-15T05:25:27.760Z,7.64
2022-11-15T05:28:13.997Z,7.66
2022-11-15T05:31:06.800Z,7.54
2022-11-15T05:33:53.023Z,7.54
2022-11-15T05:36:45.810Z,7.59
2022-11-15T05:39:31.560Z,7.67
2022-11-15T05:42:17.365Z,7.54
2022-11-15T05:45:04.167Z,7.54
2022-11-15T05:47:49.901Z,7.50
2022-11-15T05:50:36.785Z,7.66
2022-11-15T05:53:22.599Z,7.74
2022-11-15T05:56:08.412Z,7.69
2022-11-15T05:58:59.232Z,7.73
2022-11-15T06:01:45.393Z,7.75
2022-11-15T06:04:31.129Z,7.78
2022-11-15T06:07:17.204Z,7.73
2022-11-15T06:10:03.607Z,7.71
2022-11-15T06:13:03.755Z,7.78
2022-11-15T06:15:49.658Z,7.78
2022-11-15T06:18:35.643Z,7.81
2022-11-15T06:21:22.105Z,7.67
2022-11-15T06:24:08.024Z,7.56
2022-11-15T06:26:54.163Z,7.70
2022-11-15T06:29:40.252Z,7.83
2022-11-15T06:32:26.273Z,7.84
2022-11-15T06:35:12.119Z,7.77
2022-11-15T06:38:01.143Z,7.87
2022-11-15T06:40:46.906Z,7.78
2022-11-15T06:43:32.965Z,7.73
2022-11-15T06:46:24.337Z,7.95
2022-11-15T06:49:10.806Z,7.85
2022-11-15T06:51:59.055Z,7.85
2022-11-15T06:54:45.445Z,7.80
2022-11-15T06:57:31.969Z,7.92
2022-11-15T07:00:21.972Z,7.99
2022-11-15T07:03:08.042Z,7.91
2022-11-15T07:05:55.639Z,7.74
2022-11-15T07:08:42.985Z,7.56
2022-11-15T07:11:29.371Z,7.56
2022-11-15T07:14:15.543Z,7.47
2022-11-15T07:17:05.152Z,7.57
2022-11-15T07:19:51.355Z,7.54
2022-11-15T07:22:37.365Z,7.46
2022-11-15T07:25:24.962Z,7.30
2022-11-15T07:28:11.035Z,7.39
2022-11-15T07:30:57.558Z,7.59
2022-11-15T07:33:43.746Z,7.60
2022-11-15T07:36:29.876Z,7.64
2022-11-15T07:39:15.988Z,7.71
2022-11-15T07:42:20.409Z,7.69
2022-11-15T07:45:07.528Z,7.67
2022-11-15T07:47:54.612Z,7.77
2022-11-15T07:50:43.970Z,7.81
2022-11-15T07:53:30.218Z,7.91
2022-11-15T07:56:16.071Z,7.73
2022-11-15T07:59:02.672Z,7.69
2022-11-15T08:01:48.862Z,7.77
2022-11-15T08:04:35.726Z,7.81
2022-11-15T08:07:21.887Z,7.81
2022-11-15T08:10:09.177Z,7.85
2022-11-15T08:13:06.110Z,7.94
2022-11-15T08:15:57.380Z,8.06
2022-11-15T08:18:43.929Z,8.09
2022-11-15T08:21:29.664Z,8.18
2022-11-15T08:24:15.634Z,8.24
2022-11-15T08:27:01.729Z,8.29
2022-11-15T08:29:51.196Z,8.26
2022-11-15T08:32:37.324Z,8.32
2022-11-15T08:35:29.555Z,8.09
2022-11-15T08:38:16.708Z,8.04
2022-11-15T08:41:04.864Z,8.05
2022-11-15T08:43:55.397Z,8.04
2022-11-15T08:46:42.800Z,8.02
2022-11-15T08:49:29.667Z,8.05
2022-11-15T08:52:16.332Z,7.98
2022-11-15T08:55:02.787Z,7.97
2022-11-15T08:57:49.169Z,7.97
2022-11-15T09:00:37.267Z,7.90
2022-11-15T09:03:23.596Z,7.91
2022-11-15T09:06:10.539Z,7.92
2022-11-15T09:09:01.397Z,7.91
2022-11-15T09:11:48.821Z,7.98
2022-11-15T09:14:34.705Z,8.14
2022-11-15T09:17:24.693Z,8.02
2022-11-15T09:20:11.331Z,7.95
2022-11-15T09:23:02.150Z,8.01
2022-11-15T09:25:48.914Z,8.15
2022-11-15T09:28:35.760Z,8.31
2022-11-15T09:31:22.515Z,8.36
2022-11-15T09:34:08.891Z,8.43
2022-11-15T09:36:54.787Z,8.39
2022-11-15T09:39:40.927Z,8.31
2022-11-15T09:42:36.053Z,8.33
2022-11-15T09:45:27.531Z,8.38
2022-11-15T09:48:40.945Z,8.52
2022-11-15T09:51:31.921Z,8.57
2022-11-15T09:54:51.569Z,8.69
2022-11-15T09:57:07.053Z,8.72
2022-11-15T09:59:51.447Z,8.81
2022-11-15T10:02:37.928Z,8.48
2022-11-15T10:05:11.106Z,8.39
2022-11-15T10:08:05.202Z,8.49
2022-11-15T10:10:48.832Z,8.70
2022-11-15T10:13:21.517Z,8.77
2022-11-15T10:15:49.595Z,8.64
2022-11-15T10:18:29.490Z,8.67
2022-11-15T10:21:02.544Z,8.69
2022-11-15T10:23:30.155Z,8.79
2022-11-15T10:26:03.686Z,8.81
2022-11-15T10:28:34.457Z,8.80
2022-11-15T10:31:02.594Z,8.80
2022-11-15T10:33:37.524Z,8.84
2022-11-15T10:36:10.123Z,9.00
2022-11-15T10:38:58.092Z,8.91
2022-11-15T10:41:28.277Z,9.03
2022-11-15T10:44:30.397Z,8.94
2022-11-15T10:47:08.014Z,8.72
2022-11-15T10:49:38.387Z,8.83
2022-11-15T10:52:18.001Z,8.80
2022-11-15T10:54:50.238Z,8.81
2022-11-15T10:57:21.819Z,8.73
2022-11-15T10:59:57.295Z,8.76
2022-11-15T11:02:40.939Z,8.81
2022-11-15T11:05:37.871Z,8.79
2022-11-15T11:08:12.240Z,8.74
2022-11-15T11:10:57.166Z,8.88
2022-11-15T11:13:36.454Z,8.91
2022-11-15T11:16:16.160Z,9.05
2022-11-15T11:19:09.362Z,9.27
2022-11-15T11:21:46.493Z,9.34
2022-11-15T11:24:40.550Z,9.38
2022-11-15T11:27:16.944Z,9.61
2022-11-15T11:30:22.608Z,9.63
2022-11-15T11:33:14.228Z,9.73
2022-11-15T11:35:58.200Z,9.52
2022-11-15T11:38:41.301Z,9.69
2022-11-15T11:41:29.936Z,9.86
2022-11-15T11:44:16.305Z,9.83
2022-11-15T11:46:44.176Z,9.99
2022-11-15T11:49:31.754Z,10.34
2022-11-15T11:52:04.551Z,10.55
2022-11-15T11:55:05.896Z,10.41
2022-11-15T11:58:03.973Z,10.30
2022-11-15T12:00:37.858Z,10.10
2022-11-15T12:03:17.231Z,9.99
2022-11-15T12:06:08.245Z,9.87
2022-11-15T12:08:56.490Z,10.01
2022-11-15T12:11:44.481Z,9.87
2022-11-15T12:14:22.934Z,9.83
2022-11-15T12:16:50.351Z,9.70
2022-11-15T12:19:20.432Z,9.69
2022-11-15T12:21:47.721Z,9.63
2022-11-15T12:24:21.915Z,9.56
2022-11-15T12:27:26.302Z,9.65
2022-11-15T12:29:55.810Z,9.70
2022-11-15T12:32:26.180Z,9.63
2022-11-15T12:34:53.680Z,9.58
2022-11-15T12:38:01.249Z,9.52
2022-11-15T12:40:44.706Z,9.45
2022-11-15T12:43:40.907Z,9.32
2022-11-15T12:46:21.776Z,9.22
2022-11-15T12:48:51.178Z,9.32
2022-11-15T12:51:21.211Z,9.24
2022-11-15T12:53:49.182Z,9.25
2022-11-15T12:56:16.990Z,9.25
2022-11-15T12:58:57.039Z,9.39
2022-11-15T13:01:52.027Z,9.52
2022-11-15T13:04:24.463Z,9.52
2022-11-15T13:07:18.187Z,9.52
2022-11-15T13:09:45.670Z,9.51
2022-11-15T13:12:35.477Z,9.59
2022-11-15T13:16:04.731Z,9.72
2022-11-15T13:18:36.547Z,9.80
2022-11-15T13:21:25.488Z,9.89
2022-11-15T13:23:56.626Z,9.80
2022-11-15T13:26:24.051Z,9.82
2022-11-15T13:28:55.524Z,9.48
2022-11-15T13:31:36.993Z,9.34
2022-11-15T13:37:22.643Z,9.31
2022-11-15T13:39:50.335Z,9.35
2022-11-15T13:42:18.653Z,9.30
2022-11-15T13:45:00.524Z,9.36
2022-11-15T13:47:28.740Z,9.28
2022-11-15T13:49:59.286Z,9.35
2022-11-15T13:52:36.981Z,9.22
2022-11-15T13:55:15.404Z,9.25
2022-11-15T13:57:52.487Z,9.31
2022-11-15T14:00:25.707Z,9.38
2022-11-15T14:02:53.212Z,9.38
2022-11-15T14:05:24.774Z,9.28
2022-11-15T14:07:56.674Z,9.31
2022-11-15T14:11:05.744Z,9.27
2022-11-15T14:13:33.268Z,9.24
2022-11-15T14:16:21.235Z,9.22
2022-11-15T14:18:53.047Z,9.25
2022-11-15T14:21:20.862Z,9.07
2022-11-15T14:23:50.155Z,9.12
2022-11-15T14:26:32.193Z,9.11
2022-11-15T14:29:28.897Z,9.14
2022-11-15T14:32:19.480Z,9.14
2022-11-15T14:34:47.072Z,9.22
2022-11-15T14:37:22.907Z,9.14
2022-11-15T14:39:50.631Z,9.24
2022-11-15T14:42:18.115Z,9.14
2022-11-15T14:44:46.322Z,9.25
2022-11-15T14:47:13.921Z,9.35
2022-11-15T14:49:41.344Z,9.45
2022-11-15T14:52:35.354Z,9.36
2022-11-15T14:55:04.728Z,9.49
2022-11-15T14:57:32.052Z,9.49
2022-11-15T14:59:59.597Z,9.53
2022-11-15T15:02:40.043Z,9.48
2022-11-15T15:05:21.743Z,9.49
2022-11-15T15:07:49.613Z,9.43
2022-11-15T15:10:39.061Z,9.35
2022-11-15T15:13:05.389Z,9.28
2022-11-15T15:15:35.297Z,9.30
2022-11-15T15:18:03.613Z,9.34
2022-11-15T15:20:31.105Z,9.38
2022-11-15T15:22:59.104Z,9.36
2022-11-15T15:25:33.993Z,9.51
2022-11-15T15:28:01.590Z,9.59
2022-11-15T15:30:30.175Z,9.62
2022-11-15T15:32:57.495Z,9.59
2022-11-15T15:35:24.728Z,9.58
2022-11-15T15:37:52.317Z,9.59
2022-11-15T15:40:23.363Z,9.41
2022-11-15T15:42:50.732Z,9.52
2022-11-15T15:45:18.416Z,9.56
2022-11-15T15:47:45.961Z,9.56
2022-11-15T15:50:24.800Z,9.59
2022-11-15T15:52:52.885Z,9.55
2022-11-15T15:55:20.308Z,9.55
2022-11-15T15:57:48.068Z,9.48
2022-11-15T16:00:16.124Z,9.59
2022-11-15T16:02:43.458Z,9.69
2022-11-15T16:05:10.990Z,9.69
2022-11-15T16:07:38.603Z,9.51
2022-11-15T16:10:28.157Z,9.49
2022-11-15T16:12:56.164Z,9.53
2022-11-15T16:15:24.482Z,9.61
2022-11-15T16:17:56.777Z,9.76
2022-11-15T16:20:32.704Z,9.65
2022-11-15T16:23:04.379Z,9.58
2022-11-15T16:25:46.923Z,9.39
2022-11-15T16:28:24.174Z,9.35
2022-11-15T16:31:03.528Z,9.35
2022-11-15T16:33:31.341Z,9.41
2022-11-15T16:35:58.828Z,9.59
2022-11-15T16:38:27.657Z,9.55
2022-11-15T16:40:54.909Z,9.52
2022-11-15T16:43:22.281Z,9.53
2022-11-15T16:45:50.348Z,9.62
2022-11-15T16:48:25.581Z,9.66
2022-11-15T16:50:56.049Z,9.66
2022-11-15T16:53:23.954Z,9.62
2022-11-15T16:55:51.210Z,9.61
2022-11-15T16:58:18.572Z,9.66
2022-11-15T17:00:46.250Z,9.52
2022-11-15T17:03:13.672Z,9.55
2022-11-15T17:05:40.945Z,9.66
2022-11-15T17:08:08.581Z,9.55
2022-11-15T17:10:38.501Z,9.73
2022-11-15T17:13:05.755Z,9.85
2022-11-15T17:15:33.017Z,9.86
2022-11-15T17:18:00.811Z,10.01
2022-11-15T17:20:28.011Z,10.06
2022-11-15T17:22:56.258Z,9.80
2022-11-15T17:25:23.579Z,9.94
2022-11-15T17:27:50.889Z,9.82
2022-11-15T17:30:20.166Z,9.68
2022-11-15T17:32:48.128Z,9.72
2022-11-15T17:35:16.088Z,9.65
2022-11-15T17:37:44.063Z,9.73
2022-11-15T17:40:11.813Z,9.52
2022-11-15T17:42:41.239Z,9.49
2022-11-15T17:45:10.098Z,9.53
2022-11-15T17:47:37.963Z,9.62
2022-11-15T17:50:05.616Z,9.66
2022-11-15T17:52:32.933Z,9.56
2022-11-15T17:55:00.182Z,9.55
2022-11-15T17:57:27.534Z,9.55
2022-11-15T17:59:54.881Z,9.53
2022-11-15T18:02:22.398Z,9.85
2022-11-15T18:04:49.719Z,9.79
2022-11-15T18:07:17.114Z,9.55
2022-11-15T18:09:44.491Z,9.76
2022-11-15T18:12:11.979Z,9.78
2022-11-15T18:14:39.366Z,9.80
2022-11-15T18:17:06.762Z,9.61
2022-11-15T18:19:34.833Z,9.85
2022-11-15T18:22:04.527Z,9.83
2022-11-15T18:24:33.885Z,9.76
2022-11-15T18:27:02.225Z,9.90
2022-11-15T18:29:29.516Z,9.89
2022-11-15T18:31:57.208Z,9.83
2022-11-15T18:34:25.618Z,9.83
2022-11-15T18:36:53.185Z,9.79
2022-11-15T18:39:20.598Z,9.94
2022-11-15T18:41:48.068Z,9.85
2022-11-15T18:44:15.408Z,9.87
2022-11-15T18:46:42.811Z,9.80
2022-11-15T18:49:10.253Z,9.73
2022-11-15T18:51:38.080Z,9.58
2022-11-15T18:54:05.322Z,9.55
2022-11-15T18:56:33.002Z,9.51
2022-11-15T18:59:01.928Z,9.51
2022-11-15T19:01:32.812Z,9.45
2022-11-15T19:04:06.590Z,9.32
2022-11-15T19:06:42.950Z,9.41
2022-11-15T19:09:11.351Z,9.21
2022-11-15T19:11:39.823Z,9.11
2022-11-15T19:14:11.768Z,9.10
2022-11-15T19:16:40.860Z,9.17
2022-11-15T19:19:11.816Z,9.18
2022-11-15T19:21:39.161Z,8.97
2022-11-15T19:24:06.623Z,9.03
2022-11-15T19:26:36.948Z,9.12
2022-11-15T19:29:04.429Z,9.12
2022-11-15T19:31:32.009Z,9.05
2022-11-15T19:34:00.559Z,9.08
2022-11-15T19:36:32.503Z,9.15
2022-11-15T19:39:08.466Z,9.12
2022-11-15T19:41:37.034Z,9.11
2022-11-15T19:44:05.603Z,9.10
2022-11-15T19:46:33.122Z,9.11
2022-11-15T19:49:00.502Z,9.25
2022-11-15T19:51:29.390Z,9.32
2022-11-15T19:53:58.265Z,9.22
2022-11-15T19:56:25.603Z,9.24
2022-11-15T19:58:53.982Z,9.30
2022-11-15T20:01:22.298Z,9.31
2022-11-15T20:03:50.288Z,9.30
2022-11-15T20:06:18.848Z,9.21
2022-11-15T20:08:46.815Z,9.28
2022-11-15T20:11:14.396Z,9.11
2022-11-15T20:13:42.071Z,9.14
2022-11-15T20:16:10.801Z,9.08
2022-11-15T20:18:37.999Z,9.15
2022-11-15T20:21:06.436Z,9.10
2022-11-15T20:23:33.732Z,9.14
2022-11-15T20:26:01.010Z,9.20
2022-11-15T20:28:28.646Z,9.11
2022-11-15T20:30:58.142Z,9.11
2022-11-15T20:33:25.626Z,9.10
2022-11-15T20:35:53.153Z,8.99
2022-11-15T20:38:21.353Z,8.99
2022-11-15T20:40:49.224Z,9.10
2022-11-15T20:43:18.367Z,9.04
2022-11-15T20:45:46.958Z,9.12
2022-11-15T20:48:14.427Z,9.17
2022-11-15T20:50:43.525Z,9.11
2022-11-15T20:53:12.868Z,9.04
2022-11-15T20:55:44.118Z,9.08
2022-11-15T20:58:11.567Z,9.24
2022-11-15T21:00:38.833Z,9.18
2022-11-15T21:03:07.027Z,9.24
2022-11-15T21:05:35.534Z,9.18
2022-11-15T21:08:02.979Z,9.11
2022-11-15T21:10:48.735Z,9.12
2022-11-15T21:13:16.036Z,9.17
2022-11-15T21:15:43.279Z,9.22
2022-11-15T21:18:10.689Z,9.17
2022-11-15T21:20:37.988Z,9.22
2022-11-15T21:23:05.288Z,9.05
2022-11-15T21:25:35.318Z,9.10
2022-11-15T21:28:03.075Z,9.20
2022-11-15T21:30:30.394Z,9.12
2022-11-15T21:32:57.712Z,9.22
2022-11-15T21:35:25.041Z,9.22
2022-11-15T21:37:56.806Z,9.24
2022-11-15T21:40:25.310Z,9.25
2022-11-15T21:42:52.535Z,9.15
2022-11-15T21:45:19.836Z,9.14
2022-11-15T21:47:47.071Z,9.21
2022-11-15T21:50:14.513Z,9.21
2022-11-15T21:52:41.789Z,9.35
2022-11-15T21:55:09.423Z,9.35
2022-11-15T21:57:36.735Z,9.39
2022-11-15T22:00:23.619Z,9.28
2022-11-15T22:02:50.898Z,9.18
2022-11-15T22:05:18.164Z,9.25
2022-11-15T22:07:45.459Z,9.42
2022-11-15T22:10:12.765Z,9.27
2022-11-15T22:12:40.328Z,9.22
2022-11-15T22:15:07.934Z,9.28
2022-11-15T22:17:54.014Z,9.41
2022-11-15T22:20:43.612Z,9.43
2022-11-15T22:23:09.958Z,9.38
2022-11-15T22:25:37.249Z,9.34
2022-11-15T22:28:04.686Z,9.41
2022-11-15T22:30:31.973Z,9.30
2022-11-15T22:32:59.336Z,9.28
2022-11-15T22:35:26.569Z,9.24
2022-11-15T22:37:53.943Z,9.31
2022-11-15T22:40:21.321Z,9.32
2022-11-15T22:42:48.631Z,9.34
2022-11-15T22:45:15.923Z,9.35
2022-11-15T22:47:43.261Z,9.28
2022-11-15T22:50:10.491Z,9.28
2022-11-15T22:52:37.779Z,9.42
2022-11-15T22:55:05.631Z,9.43
2022-11-15T22:57:33.003Z,9.42
2022-11-15T23:00:00.259Z,9.51
2022-11-15T23:02:27.535Z,9.41
2022-11-15T23:04:54.785Z,9.39
2022-11-15T23:07:22.165Z,9.51
2022-11-15T23:09:52.153Z,9.45
2022-11-15T23:12:38.391Z,9.38
2022-11-15T23:15:06.656Z,9.51
2022-11-15T23:17:33.880Z,9.48
2022-11-15T23:20:16.752Z,9.46
2022-11-15T23:22:48.516Z,9.53
2022-11-15T23:25:15.782Z,9.63
2022-11-15T23:27:43.125Z,9.52
2022-11-15T23:30:29.381Z,9.58
2022-11-15T23:33:15.541Z,9.68
2022-11-15T23:35:42.896Z,9.59
2022-11-15T23:38:10.163Z,9.52
2022-11-15T23:40:37.444Z,9.46
2022-11-15T23:43:04.716Z,9.48
2022-11-15T23:45:32.026Z,9.49
2022-11-15T23:48:01.484Z,9.42
2022-11-15T23:50:29.181Z,9.30
2022-11-15T23:52:56.394Z,9.34
2022-11-15T23:55:23.697Z,9.52
2022-11-15T23:57:50.895Z,9.61
